In Rescue
 
Open Full Screen Window  High Contrast Mode
Wind Gusting 00 knots
09
November 29, 2022 9:18 AM CST
Present Weather: Unknown Precipitation
Weather Information
Wind Direction
  020 °
Wind Speed
  09 kt (10 mph)
Wind Gust
  00 kt (0 mph)
Altimeter
29.57 in
Visibility
2 1/2 SM
Temperature
-01° C
30° F
Dewpoint
-02° C
28° F
Humidity
93%
1hr Rain Fall
00.00 in.
24hr Rain Fall
00.00 in.
Sky Condition
Overcast @ 1,500 ft
Broken @ 800 ft
IFR

METAR KAUM 291518Z AUTO 02009KT 2 1/2SM UP BKN008 OVC015 M01/M02 A2957 RMK AO2

FAA Disclaimer: The data displayed is for advisory purposes only and is not to be used for flight planning or operations.